Time;durP1;ratioP1;P1;durP2;ratioP2;P2;SDS_P1;SDS_P2;PMS_P1;PMS_P2;Temp;Humidity;BMP_temperature;BMP_pressure;BME280_temperature;BME280_humidity;BME280_pressure;Samples;Min_cycle;Max_cycle;Signal;HPM_P1;HPM_P2
2023/01/31 00:01:26;;;;;;;13.15;8.10;;;;;;;;;;5035627;28;20512;-79
2023/01/31 00:03:52;;;;;;;10.88;7.35;;;;;;;;;;5035131;28;20447;-79
2023/01/31 00:06:22;;;;;;;13.07;7.90;;;;;;;;;;5036058;28;20040;-79
2023/01/31 00:08:48;;;;;;;15.52;8.18;;;;;;;;;;5034610;28;20037;-79
2023/01/31 00:11:14;;;;;;;13.55;7.68;;;;;;;;;;5035535;28;20042;-79
2023/01/31 00:13:39;;;;;;;14.55;7.82;;;;;;;;;;5028383;28;20040;-79
2023/01/31 00:16:05;;;;;;;12.40;7.70;;;;;;;;;;5034074;28;20120;-80
2023/01/31 00:18:30;;;;;;;11.88;7.93;;;;;;;;;;5034737;28;20275;-79
2023/01/31 00:20:55;;;;;;;12.85;7.30;;;;;;;;;;5035248;28;20112;-79
2023/01/31 00:23:20;;;;;;;13.03;8.10;;;;;;;;;;5035407;28;20110;-79
2023/01/31 00:25:45;;;;;;;14.60;8.37;;;;;;;;;;5034309;28;20529;-81
2023/01/31 00:28:11;;;;;;;12.83;8.17;;;;;;;;;;5035844;28;20284;-78
2023/01/31 00:30:36;;;;;;;16.37;8.90;;;;;;;;;;5020357;28;20092;-79
2023/01/31 00:33:01;;;;;;;14.75;8.18;;;;;;;;;;5034337;28;20124;-79
2023/01/31 00:35:27;;;;;;;16.23;9.30;;;;;;;;;;5035149;28;20045;-80
2023/01/31 00:37:52;;;;;;;16.30;8.88;;;;;;;;;;5034137;28;20354;-80
2023/01/31 00:40:17;;;;;;;15.35;8.90;;;;;;;;;;5033162;28;20064;-79
2023/01/31 00:42:43;;;;;;;15.63;8.73;;;;;;;;;;5036772;28;20038;-79
2023/01/31 00:45:08;;;;;;;12.60;8.23;;;;;;;;;;5034601;28;20121;-79
2023/01/31 00:47:33;;;;;;;17.13;9.30;;;;;;;;;;5036807;28;20523;-79
2023/01/31 00:49:59;;;;;;;18.63;9.57;;;;;;;;;;5034109;28;20049;-80
2023/01/31 00:52:24;;;;;;;17.23;10.13;;;;;;;;;;5033536;28;20052;-79
2023/01/31 00:54:49;;;;;;;16.10;9.45;;;;;;;;;;5037355;28;20037;-80
2023/01/31 00:57:15;;;;;;;18.23;9.90;;;;;;;;;;5034591;28;20040;-78
2023/01/31 00:59:40;;;;;;;16.63;10.13;;;;;;;;;;5041709;28;20789;-79
2023/01/31 01:02:05;;;;;;;15.97;9.40;;;;;;;;;;5042062;28;20378;-79
2023/01/31 01:04:30;;;;;;;18.50;10.40;;;;;;;;;;5031449;28;20033;-78
2023/01/31 01:06:55;;;;;;;16.63;9.13;;;;;;;;;;5030597;28;20083;-78
2023/01/31 01:09:21;;;;;;;18.70;10.93;;;;;;;;;;5034067;28;20283;-78
2023/01/31 01:11:47;;;;;;;19.80;9.00;;;;;;;;;;5035793;28;20037;-79
2023/01/31 01:14:12;;;;;;;16.38;9.25;;;;;;;22.38;100.00;53800.69;5032199;28;20043;-79
2023/01/31 01:16:38;;;;;;;17.17;9.95;;;;;;;;;;5035594;28;20124;-79
2023/01/31 01:19:04;;;;;;;17.98;10.57;;;;;;;;;;5032816;28;20088;-79
2023/01/31 01:21:30;;;;;;;22.25;10.60;;;;;;;;;;5035794;28;20061;-79
2023/01/31 01:23:56;;;;;;;16.40;9.25;;;;;;;;;;5031040;28;20037;-79
2023/01/31 01:26:23;;;;;;;14.20;9.32;;;;;;;;;;5027903;28;20128;-80
2023/01/31 01:28:49;;;;;;;18.35;9.90;;;;;;;;;;5035471;28;20061;-79
2023/01/31 01:31:15;;;;;;;16.58;9.95;;;;;;;;;;5045629;28;20508;-79
2023/01/31 01:33:40;;;;;;;17.42;9.98;;;;;;;;;;5034084;28;20381;-79
2023/01/31 01:36:06;;;;;;;16.75;9.40;;;;;;;;;;5031841;28;20067;-80
2023/01/31 01:38:35;;;;;;;17.58;10.40;;;;;;;;;;5030255;28;20046;-79
2023/01/31 01:41:00;;;;;;;15.95;9.75;;;;;;;;;;5029497;28;20099;-79
2023/01/31 01:43:40;;;;;;;18.45;10.50;;;;;;;;;;5040959;28;20124;-79
2023/01/31 01:46:05;;;;;;;15.52;9.13;;;;;;;;;;5042214;28;20477;-79
2023/01/31 01:48:31;;;;;;;17.65;9.23;;;;;;;;;;5032416;28;20033;-78
2023/01/31 01:50:57;;;;;;;16.92;9.95;;;;;;;;;;5039202;28;20056;-79
2023/01/31 01:53:23;;;;;;;16.60;9.77;;;;;;;;;;5032498;28;20081;-78
2023/01/31 01:55:52;;;;;;;15.13;9.27;;;;;;;;;;5034584;28;20036;-79
2023/01/31 01:58:18;;;;;;;15.40;9.52;;;;;;;;;;5033092;28;20118;-79
2023/01/31 02:00:44;;;;;;;14.57;9.13;;;;;;;;;;5034134;28;20022;-79
2023/01/31 02:03:09;;;;;;;15.48;9.32;;;;;;;;;;5019635;28;20034;-79
2023/01/31 02:05:42;;;;;;;16.15;9.65;;;;;;;;;;5013312;28;20066;-79
2023/01/31 02:08:09;;;;;;;17.20;10.38;;;;;;;;;;5021857;28;20520;-78
2023/01/31 02:11:00;;;;;;;18.50;10.27;;;;;;;;;;5014440;28;20120;-79
2023/01/31 02:13:26;;;;;;;15.93;9.73;;;;;;;;;;5041386;28;20454;-79
2023/01/31 02:15:51;;;;;;;18.40;9.93;;;;;;;;;;5034168;28;20060;-79
2023/01/31 02:18:18;;;;;;;16.07;9.63;;;;;;;;;;5028032;28;20515;-79
2023/01/31 02:21:04;;;;;;;14.05;8.75;;;;;;;22.38;0.00;120362.75;5033245;28;20033;-79
2023/01/31 02:23:43;;;;;;;16.08;9.75;;;;;;;;;;5034041;28;20030;-80
2023/01/31 02:26:20;;;;;;;14.95;8.88;;;;;;;;;;5031183;28;20037;-79
2023/01/31 02:29:24;;;;;;;15.68;9.45;;;;;;;;;;5032609;28;20041;-79
2023/01/31 02:32:08;;;;;;;13.68;8.80;;;;;;;;;;4996309;28;20096;-79
2023/01/31 02:34:37;;;;;;;16.98;9.57;;;;;;;;;;4986734;28;20042;-79
2023/01/31 02:37:21;;;;;;;18.30;9.75;;;;;;;;;;5026385;28;20040;-79
2023/01/31 02:39:55;;;;;;;15.75;9.40;;;;;;;;;;5035801;28;20057;-79
2023/01/31 02:42:23;;;;;;;15.48;9.25;;;;;;;;;;5046274;28;20033;-80
2023/01/31 02:44:58;;;;;;;18.63;9.20;;;;;;;;;;5032151;28;20041;-79
2023/01/31 02:47:26;;;;;;;19.10;10.32;;;;;;;;;;5032689;28;20033;-80
2023/01/31 02:49:55;;;;;;;17.80;9.18;;;;;;;;;;5033066;28;20040;-79
2023/01/31 02:52:24;;;;;;;16.92;9.27;;;;;;;;;;5034882;28;20042;-79
2023/01/31 02:57:48;;;;;;;14.18;8.23;;;;;;;;;;5026290;28;20052;-79
2023/01/31 03:00:13;;;;;;;18.02;7.95;;;;;;;;;;5032134;28;20120;-80
2023/01/31 03:02:40;;;;;;;15.55;8.40;;;;;;;;;;5033762;28;20049;-79
2023/01/31 03:05:05;;;;;;;15.43;8.10;;;;;;;;;;5040928;28;20034;-79
2023/01/31 03:07:32;;;;;;;16.33;8.25;;;;;;;;;;5031873;28;20034;-79
2023/01/31 03:10:07;;;;;;;18.88;8.65;;;;;;;;;;5025058;28;20038;-80
2023/01/31 03:12:41;;;;;;;12.85;7.90;;;;;;;;;;5038143;28;20365;-79
2023/01/31 03:15:25;;;;;;;16.40;9.18;;;;;;;;;;5049374;28;20034;-79
2023/01/31 03:17:53;;;;;;;15.82;8.68;;;;;;;;;;5027763;28;20095;-78
2023/01/31 03:20:43;;;;;;;15.57;7.95;;;;;;;;;;5045141;28;20036;-79
2023/01/31 03:23:18;;;;;;;15.05;7.97;;;;;;;;;;5033059;28;20057;-79
2023/01/31 03:25:45;;;;;;;14.45;7.57;;;;;;;;;;5037162;28;20125;-78
2023/01/31 03:28:11;;;;;;;13.73;7.68;;;;;;;;;;5043814;28;20041;-79
2023/01/31 03:30:55;;;;;;;18.27;8.80;;;;;;;;;;5036995;28;20037;-79
2023/01/31 03:33:25;;;;;;;14.48;7.78;;;;;;;;;;5036555;28;20508;-79
2023/01/31 03:35:58;;;;;;;12.98;7.45;;;;;;;;;;5035595;28;20041;-79
2023/01/31 03:38:32;;;;;;;12.13;6.85;;;;;;;;;;5048289;28;20071;-79
2023/01/31 03:41:02;;;;;;;15.52;7.78;;;;;;;-145.28;0.00;65941.84;5041357;28;20107;-79
2023/01/31 03:43:30;;;;;;;12.13;6.63;;;;;;;;;;5036034;28;20026;-79
2023/01/31 03:46:00;;;;;;;13.63;7.00;;;;;;;;;;5036008;28;20060;-80
2023/01/31 03:48:27;;;;;;;12.05;7.32;;;;;;;;;;5029128;28;20061;-79
2023/01/31 03:50:54;;;;;;;11.23;7.05;;;;;;;;;;5034507;28;20400;-79
2023/01/31 03:53:38;;;;;;;16.50;7.70;;;;;;;;;;5031514;28;20034;-79
2023/01/31 03:56:11;;;;;;;12.18;7.22;;;;;;;;;;5034098;28;20045;-79
2023/01/31 03:58:40;;;;;;;12.07;6.55;;;;;;;;;;5041443;28;20121;-80
2023/01/31 04:01:07;;;;;;;12.70;5.93;;;;;;;;;;5029241;28;20034;-79
2023/01/31 04:03:40;;;;;;;10.35;5.97;;;;;;;;;;5026595;28;20120;-79
2023/01/31 04:06:06;;;;;;;10.25;6.07;;;;;;;;;;5026094;28;20044;-79
2023/01/31 04:08:32;;;;;;;10.93;5.78;;;;;;;;;;5034681;28;20033;-79
2023/01/31 04:10:58;;;;;;;13.50;6.45;;;;;;;;;;5044181;28;20044;-79
2023/01/31 04:13:23;;;;;;;11.82;6.75;;;;;;;;;;5031973;28;20457;-78
2023/01/31 04:15:48;;;;;;;13.18;6.40;;;;;;;;;;5028915;28;20042;-78
2023/01/31 04:18:14;;;;;;;10.43;6.50;;;;;;;-145.28;0.00;87214.63;5036773;28;20049;-79
2023/01/31 04:20:39;;;;;;;12.88;7.00;;;;;;;;;;5035931;28;20117;-79
2023/01/31 04:23:04;;;;;;;10.57;6.40;;;;;;;;;;5029415;28;20042;-78
2023/01/31 04:25:29;;;;;;;10.50;6.43;;;;;;;;;;5036492;28;20409;-79
2023/01/31 04:27:54;;;;;;;10.20;6.00;;;;;;;;;;5040124;28;20037;-80
2023/01/31 04:30:20;;;;;;;9.73;5.37;;;;;;;;;;5040061;28;20032;-79
2023/01/31 04:32:45;;;;;;;9.90;5.67;;;;;;;;;;5041477;28;20776;-79
2023/01/31 04:35:10;;;;;;;11.82;7.63;;;;;;;;;;5039752;28;20289;-79
2023/01/31 04:37:35;;;;;;;13.70;6.93;;;;;;;;;;5036949;28;20038;-79
2023/01/31 04:40:00;;;;;;;13.77;7.80;;;;;;;;;;5017392;28;20288;-79
2023/01/31 04:42:26;;;;;;;13.03;7.40;;;;;;;;;;5032064;28;20273;-79
2023/01/31 04:44:51;;;;;;;13.02;6.68;;;;;;;;;;5035087;28;20065;-78
2023/01/31 04:47:16;;;;;;;10.60;5.63;;;;;;;;;;5035023;28;20065;-78
2023/01/31 04:49:42;;;;;;;13.30;6.30;;;;;;;;;;5023858;28;20490;-79
2023/01/31 04:52:09;;;;;;;9.90;5.78;;;;;;;;;;5045087;28;20040;-79
2023/01/31 04:54:35;;;;;;;10.50;5.45;;;;;;;23.69;0.00;87220.34;5019531;28;20037;-80
2023/01/31 04:57:00;;;;;;;9.20;5.30;;;;;;;;;;5016565;28;20029;-80
2023/01/31 04:59:26;;;;;;;7.95;4.75;;;;;;;;;;5015537;28;20057;-78
2023/01/31 05:01:51;;;;;;;11.93;5.87;;;;;;;;;;5021130;28;20384;-78
2023/01/31 05:04:16;;;;;;;9.77;5.53;;;;;;;;;;5034852;28;20319;-78
2023/01/31 05:06:41;;;;;;;9.03;5.53;;;;;;;;;;5035262;28;20033;-78
2023/01/31 05:09:06;;;;;;;12.77;5.90;;;;;;;;;;5036276;28;20022;-78
2023/01/31 05:11:32;;;;;;;12.48;6.10;;;;;;;;;;5035918;28;20044;-79
2023/01/31 05:13:57;;;;;;;11.02;5.93;;;;;;;;;;5036752;28;20033;-78
2023/01/31 05:16:22;;;;;;;13.13;6.60;;;;;;;;;;5038301;28;20037;-78
2023/01/31 05:18:49;;;;;;;11.33;5.87;;;;;;;;;;5017334;28;20276;-79
2023/01/31 05:21:14;;;;;;;11.65;5.57;;;;;;;;;;5017130;28;20695;-78
2023/01/31 05:23:40;;;;;;;11.97;5.90;;;;;;;23.69;60.90;87209.66;5025993;28;20187;-78
2023/01/31 05:26:05;;;;;;;15.27;6.95;;;;;;;;;;5036037;28;20376;-78
2023/01/31 05:28:30;;;;;;;15.10;6.97;;;;;;;;;;5032640;28;20045;-78
2023/01/31 05:31:00;;;;;;;17.42;7.63;;;;;;;;;;5034638;28;20291;-78
2023/01/31 05:33:26;;;;;;;16.83;7.82;;;;;;;;;;5034991;28;20469;-79
2023/01/31 05:35:51;;;;;;;21.10;9.00;;;;;;;;;;5031839;28;20037;-79
2023/01/31 05:38:16;;;;;;;17.63;8.27;;;;;;;;;;5031087;28;20037;-78
2023/01/31 05:40:42;;;;;;;15.87;8.73;;;;;;;;;;5038313;28;20104;-78
2023/01/31 05:43:07;;;;;;;18.37;9.77;;;;;;;;;;5034006;28;20323;-80
2023/01/31 05:45:32;;;;;;;17.75;8.95;;;;;;;;;;5027809;28;20030;-80
2023/01/31 05:47:58;;;;;;;17.17;9.95;;;;;;;;;;5035027;28;20033;-79
2023/01/31 05:50:23;;;;;;;18.65;9.30;;;;;;;;;;5034840;28;20405;-79
2023/01/31 05:52:50;;;;;;;21.58;9.02;;;;;;;;;;5034387;28;20053;-78
2023/01/31 05:55:15;;;;;;;22.17;10.75;;;;;;;;;;5034724;28;20033;-79
2023/01/31 05:57:40;;;;;;;24.03;10.80;;;;;;;;;;5034711;28;20040;-78
2023/01/31 06:00:06;;;;;;;18.20;9.80;;;;;;;;;;5030996;28;20060;-81
2023/01/31 06:02:32;;;;;;;22.92;9.65;;;;;;;;;;5034064;28;20543;-79
2023/01/31 06:04:57;;;;;;;18.15;10.02;;;;;;;;;;5051412;28;20064;-79
2023/01/31 06:07:22;;;;;;;21.70;10.40;;;;;;;;;;5051750;28;20057;-78
2023/01/31 06:09:48;;;;;;;22.52;10.57;;;;;;;;;;5051079;28;20029;-79
2023/01/31 06:12:13;;;;;;;24.20;10.63;;;;;;;;;;5032874;28;20096;-78
2023/01/31 06:14:39;;;;;;;18.10;10.45;;;;;;;;;;5031222;28;20296;-79
2023/01/31 06:17:04;;;;;;;21.92;10.60;;;;;;;;;;5033705;28;20049;-78
2023/01/31 06:19:31;;;;;;;26.90;11.73;;;;;;;;;;5031939;28;20038;-79
2023/01/31 06:21:57;;;;;;;25.73;12.02;;;;;;;22.38;100.00;120239.72;5031041;28;20303;-79
2023/01/31 06:24:22;;;;;;;25.55;11.50;;;;;;;;;;5031062;28;20037;-80
2023/01/31 06:26:47;;;;;;;21.88;11.05;;;;;;;;;;5034761;28;20116;-80
2023/01/31 06:29:12;;;;;;;29.27;13.07;;;;;;;;;;5028438;28;20124;-79
2023/01/31 06:31:38;;;;;;;30.50;12.70;;;;;;;;;;5030236;28;20045;-79
2023/01/31 06:34:03;;;;;;;25.73;13.02;;;;;;;;;;5019811;28;20044;-79
2023/01/31 06:36:30;;;;;;;28.50;12.63;;;;;;;;;;5045726;28;20099;-78
2023/01/31 06:38:55;;;;;;;27.48;13.57;;;;;;;;;;5017299;28;20096;-79
2023/01/31 06:41:21;;;;;;;24.75;12.05;;;;;;;;;;5036465;28;20034;-79
2023/01/31 06:43:46;;;;;;;30.45;13.80;;;;;;;;;;5035612;28;20034;-79
2023/01/31 06:46:17;;;;;;;24.80;13.45;;;;;;;;;;5034508;28;20025;-79
2023/01/31 06:48:43;;;;;;;25.20;12.82;;;;;;;;;;5034778;28;20037;-79
2023/01/31 06:51:08;;;;;;;28.27;13.25;;;;;;;;;;5032885;28;20038;-79
2023/01/31 06:53:33;;;;;;;31.88;14.32;;;;;;;;;;5035795;28;20462;-79
2023/01/31 06:55:58;;;;;;;29.60;13.87;;;;;;;;;;5024405;28;20034;-79
2023/01/31 06:58:24;;;;;;;27.98;13.07;;;;;;;;;;5032750;28;20269;-79
2023/01/31 07:00:49;;;;;;;29.43;13.70;;;;;;;;;;5032923;28;20486;-80
2023/01/31 07:03:15;;;;;;;32.28;13.98;;;;;;;;;;5035350;28;20037;-81
2023/01/31 07:05:47;;;;;;;27.83;14.30;;;;;;;;;;5032270;28;20087;-79
2023/01/31 07:08:13;;;;;;;27.52;14.27;;;;;;;;;;5049406;28;20283;-79
2023/01/31 07:10:41;;;;;;;28.35;14.18;;;;;;;;;;5035941;28;20485;-78
2023/01/31 07:13:07;;;;;;;26.50;13.95;;;;;;;;;;5036434;28;20057;-79
2023/01/31 07:15:32;;;;;;;24.70;13.02;;;;;;;;;;5035892;28;20048;-79
2023/01/31 07:17:58;;;;;;;26.92;13.70;;;;;;;;;;5016860;28;20038;-79
2023/01/31 07:20:24;;;;;;;22.95;12.68;;;;;;;;;;5055082;28;20139;-79
2023/01/31 07:22:54;;;;;;;26.60;12.80;;;;;;;;;;5046221;28;20029;-79
2023/01/31 07:25:19;;;;;;;25.80;12.85;;;;;;;;;;5036527;28;20038;-79
2023/01/31 07:27:46;;;;;;;23.97;12.40;;;;;;;;;;5035874;28;20395;-79
2023/01/31 07:30:11;;;;;;;29.58;13.90;;;;;;;;;;5035537;28;20284;-79
2023/01/31 07:32:36;;;;;;;22.60;12.10;;;;;;;;;;5036041;28;20044;-80
2023/01/31 07:35:02;;;;;;;22.85;11.85;;;;;;;;;;5037631;28;20034;-78
2023/01/31 07:37:33;;;;;;;24.88;12.60;;;;;;;;;;5035928;28;20370;-79
2023/01/31 07:39:59;;;;;;;23.02;12.43;;;;;;;;;;5029250;28;20045;-78
2023/01/31 07:42:24;;;;;;;27.80;12.77;;;;;;;;;;5050501;28;20036;-78
2023/01/31 07:44:50;;;;;;;21.35;12.25;;;;;;;;;;5036155;28;20116;-79
2023/01/31 07:47:16;;;;;;;20.35;11.95;;;;;;;;;;5036572;28;20029;-79
2023/01/31 07:49:41;;;;;;;23.20;11.50;;;;;;;;;;5037176;28;20051;-79
2023/01/31 07:52:06;;;;;;;27.67;12.70;;;;;;;;;;5035777;28;20117;-79
2023/01/31 07:54:31;;;;;;;22.83;13.27;;;;;;;;;;5036481;28;20030;-80
2023/01/31 07:56:57;;;;;;;24.40;12.43;;;;;;;;;;5021251;28;20033;-79
2023/01/31 07:59:22;;;;;;;26.20;11.93;;;;;;;;;;5022075;28;20632;-79
2023/01/31 08:04:52;;;;;;;28.98;12.30;;;;;;;;;;5061064;28;20036;-79
2023/01/31 08:07:17;;;;;;;23.85;11.43;;;;;;;;;;5056153;28;20034;-80
2023/01/31 08:09:44;;;;;;;23.10;11.70;;;;;;;;;;5039003;28;20176;-80
2023/01/31 08:12:10;;;;;;;20.13;11.90;;;;;;;;;;5043255;28;20029;-80
2023/01/31 08:14:35;;;;;;;24.50;11.13;;;;;;;;;;5059730;28;20048;-80
2023/01/31 08:17:00;;;;;;;20.88;11.13;;;;;;;;;;5051750;28;20344;-79
2023/01/31 08:19:26;;;;;;;25.00;11.57;;;;;;;;;;5041035;28;20088;-79
2023/01/31 08:21:51;;;;;;;21.80;11.25;;;;;;;-145.24;100.00;54012.06;5032360;28;20034;-79
2023/01/31 08:24:16;;;;;;;23.30;11.95;;;;;;;;;;5025373;28;20038;-78
2023/01/31 08:26:42;;;;;;;24.95;11.63;;;;;;;;;;5019216;28;20363;-79
2023/01/31 08:29:07;;;;;;;23.15;12.38;;;;;;;;;;5003721;28;20030;-79
2023/01/31 08:31:32;;;;;;;22.53;11.50;;;;;;;;;;5040319;28;20121;-79
2023/01/31 08:33:59;;;;;;;21.48;10.82;;;;;;;;;;5040991;28;20106;-80
2023/01/31 08:36:25;;;;;;;20.80;11.20;;;;;;;;;;5040138;28;20037;-79
2023/01/31 08:38:51;;;;;;;20.60;11.60;;;;;;;;;;5039169;28;20025;-81
2023/01/31 08:41:17;;;;;;;26.75;12.50;;;;;;;;;;5039208;28;20575;-80
2023/01/31 08:43:43;;;;;;;25.50;12.65;;;;;;;;;;5038844;28;20057;-80
2023/01/31 08:46:08;;;;;;;20.77;11.20;;;;;;;;;;5040130;28;20413;-80
2023/01/31 08:48:34;;;;;;;23.75;11.90;;;;;;;;;;5038289;28;20047;-80
2023/01/31 08:51:00;;;;;;;24.75;12.55;;;;;;;;;;5057658;28;20086;-79
2023/01/31 08:53:25;;;;;;;22.52;12.25;;;;;;;22.39;100.00;159765.84;5039470;28;20078;-79
2023/01/31 08:55:50;;;;;;;22.75;11.57;;;;;;;;;;5041266;28;20105;-79
2023/01/31 08:58:15;;;;;;;20.50;11.03;;;;;;;;;;5039188;28;20041;-79
2023/01/31 09:00:41;;;;;;;23.30;11.90;;;;;;;;;;5039996;28;20029;-79
2023/01/31 09:03:06;;;;;;;21.67;11.33;;;;;;;22.39;100.00;159895.75;5041237;28;20034;-79
2023/01/31 09:05:32;;;;;;;22.75;11.57;;;;;;;;;;5039294;28;20278;-80
2023/01/31 09:07:57;;;;;;;20.85;10.45;;;;;;;;;;5039181;28;20517;-79
2023/01/31 09:10:23;;;;;;;19.77;10.48;;;;;;;;;;5037896;28;20083;-78
2023/01/31 09:12:49;;;;;;;23.80;11.98;;;;;;;;;;5040438;28;20037;-79
2023/01/31 09:15:16;;;;;;;24.75;11.32;;;;;;;;;;5041085;28;20044;-79
2023/01/31 09:17:42;;;;;;;21.73;10.60;;;;;;;;;;5039968;28;20056;-79
2023/01/31 09:20:09;;;;;;;24.02;12.05;;;;;;;;;;5048370;28;20030;-79
2023/01/31 09:22:35;;;;;;;18.58;10.45;;;;;;;;;;5035908;28;20037;-79
2023/01/31 09:25:01;;;;;;;25.70;11.43;;;;;;;;;;5039296;28;20033;-79
2023/01/31 09:27:28;;;;;;;22.52;11.15;;;;;;;;;;5024521;28;20547;-79
2023/01/31 09:29:53;;;;;;;18.77;10.70;;;;;;;-145.28;100.00;119847.81;5019777;28;20034;-79
2023/01/31 09:32:20;;;;;;;19.60;10.48;;;;;;;;;;5019552;28;20041;-80
2023/01/31 09:34:47;;;;;;;23.25;10.95;;;;;;;;;;5019343;28;20041;-79
2023/01/31 09:37:12;;;;;;;22.52;10.57;;;;;;;;;;5018639;28;20044;-79
2023/01/31 09:39:37;;;;;;;21.42;11.20;;;;;;;;;;5023018;28;20045;-81
2023/01/31 09:42:23;;;;;;;24.70;11.07;;;;;;;;;;5038009;28;20067;-79
2023/01/31 09:45:10;;;;;;;23.73;11.05;;;;;;;;;;5039632;28;20033;-81
2023/01/31 09:47:40;;;;;;;23.35;10.82;;;;;;;;;;5038931;28;20057;-79
2023/01/31 09:50:05;;;;;;;24.00;11.00;;;;;;;;;;5038365;28;20041;-79
2023/01/31 09:52:31;;;;;;;20.83;10.40;;;;;;;;;;5039370;28;20068;-81
2023/01/31 09:54:57;;;;;;;21.50;10.68;;;;;;;;;;5057583;28;20045;-81
2023/01/31 09:57:28;;;;;;;19.88;10.80;;;;;;;;;;5056246;28;20037;-81
2023/01/31 10:00:12;;;;;;;22.88;10.55;;;;;;;;;;5041333;28;20053;-82
2023/01/31 10:02:44;;;;;;;20.30;9.93;;;;;;;;;;5037829;28;20028;-82
2023/01/31 10:05:24;;;;;;;24.60;11.82;;;;;;;;;;5051206;28;20091;-82
2023/01/31 10:08:02;;;;;;;19.85;10.07;;;;;;;;;;5035524;28;20029;-82
2023/01/31 10:10:27;;;;;;;18.90;10.70;;;;;;;;;;5036153;28;20043;-81
2023/01/31 10:12:58;;;;;;;22.13;10.20;;;;;;;;;;5035667;28;20128;-81
2023/01/31 10:15:45;;;;;;;20.85;8.98;;;;;;;;;;5037599;28;20037;-83
2023/01/31 10:18:14;;;;;;;23.90;10.52;;;;;;;;;;5052559;28;20404;-80
2023/01/31 10:20:45;;;;;;;21.52;9.10;;;;;;;;;;5035836;28;20048;-80
2023/01/31 10:23:10;;;;;;;;;;;;;;;;;;5029570;28;20036;-79
2023/01/31 10:25:39;;;;;;;19.80;9.43;;;;;;;;;;5039683;28;19913;-80
2023/01/31 10:28:25;;;;;;;17.77;8.88;;;;;;;;;;5035994;28;20033;-79
2023/01/31 10:30:59;;;;;;;20.27;10.20;;;;;;;;;;5044841;28;20044;-80
2023/01/31 10:33:26;;;;;;;20.23;9.07;;;;;;;;;;5022799;28;20046;-80
2023/01/31 10:35:56;;;;;;;17.33;9.17;;;;;;;;;;5041988;28;20061;-78
2023/01/31 10:38:21;;;;;;;18.47;9.27;;;;;;;;;;5034080;28;20807;-78
2023/01/31 10:40:50;;;;;;;18.67;9.13;;;;;;;;;;5039491;28;20265;-77
2023/01/31 10:43:20;;;;;;;18.70;10.05;;;;;;;;;;5040333;28;20055;-78
2023/01/31 10:45:46;;;;;;;19.75;9.38;;;;;;;;;;5056429;28;20041;-79
2023/01/31 10:48:16;;;;;;;17.10;9.17;;;;;;;;;;5038700;28;20053;-78
2023/01/31 10:50:48;;;;;;;21.73;9.27;;;;;;;;;;5040113;28;20264;-78
2023/01/31 10:56:04;;;;;;;19.05;8.65;;;;;;;;;;5038865;28;20186;-78
2023/01/31 10:58:29;;;;;;;18.63;8.25;;;;;;;;;;5032251;28;20028;-85
2023/01/31 11:00:55;;;;;;;16.88;7.82;;;;;;;;;;5065053;28;20025;-86
2023/01/31 11:03:20;;;;;;;20.60;8.55;;;;;;;;;;5064094;28;20044;-88
2023/01/31 11:05:50;;;;;;;14.75;7.55;;;;;;;;;;5058753;28;20577;-88
2023/01/31 11:08:35;;;;;;;15.65;8.55;;;;;;;;;;5056197;28;20044;-87
2023/01/31 11:11:05;;;;;;;15.27;7.07;;;;;;;;;;5062104;28;20033;-86
2023/01/31 11:13:30;;;;;;;12.85;7.20;;;;;;;;;;5061735;28;20037;-86
2023/01/31 11:15:56;;;;;;;21.35;8.20;;;;;;;;;;5059899;28;20045;-88
2023/01/31 11:18:28;;;;;;;17.77;8.15;;;;;;;;;;5066262;28;20033;-86
2023/01/31 11:20:54;;;;;;;21.88;8.20;;;;;;;;;;5042782;28;20128;-88
2023/01/31 11:23:38;;;;;;;15.02;6.93;;;;;;;;;;5063375;28;20025;-79
2023/01/31 11:26:03;;;;;;;18.35;8.07;;;;;;;;;;5061494;28;20063;-78
2023/01/31 11:28:38;;;;;;;17.60;7.40;;;;;;;;;;5060410;28;20036;-82
2023/01/31 11:31:05;;;;;;;14.05;6.90;;;;;;;;;;5059856;28;20161;-81
2023/01/31 11:33:36;;;;;;;17.88;7.57;;;;;;;;;;5054270;28;20036;-81
2023/01/31 11:36:13;;;;;;;17.83;7.75;;;;;;;;;;5040550;28;20029;-80
2023/01/31 11:38:38;;;;;;;17.73;8.27;;;;;;;;;;5041265;28;20099;-80
2023/01/31 11:41:22;;;;;;;14.23;6.75;;;;;;;;;;5040940;28;20029;-81
2023/01/31 11:43:48;;;;;;;17.73;7.90;;;;;;;;;;5056781;28;20045;-82
2023/01/31 11:46:13;;;;;;;15.00;7.00;;;;;;;;;;5031010;28;20250;-82
2023/01/31 11:48:39;;;;;;;16.40;6.60;;;;;;;;;;5058607;28;20032;-82
2023/01/31 11:51:05;;;;;;;17.80;7.25;;;;;;;;;;5042281;28;20052;-82
2023/01/31 11:53:34;;;;;;;13.48;6.38;;;;;;;;;;5048489;28;20030;-83
2023/01/31 11:56:11;;;;;;;17.45;7.28;;;;;;;;;;5037685;28;20028;-83
2023/01/31 11:58:37;;;;;;;15.63;6.63;;;;;;;;;;5046480;28;20013;-82
2023/01/31 12:01:07;;;;;;;17.17;7.00;;;;;;;;;;5040656;28;20029;-82
2023/01/31 12:03:33;;;;;;;15.35;6.60;;;;;;;;;;5052974;28;20033;-83
2023/01/31 12:05:59;;;;;;;18.25;7.65;;;;;;;;;;5045874;28;20044;-82
2023/01/31 12:08:25;;;;;;;15.32;6.97;;;;;;;;;;5042570;28;20537;-81
2023/01/31 12:10:50;;;;;;;15.23;6.80;;;;;;;;;;5042661;28;20045;-82
2023/01/31 12:13:19;;;;;;;14.55;6.65;;;;;;;;;;5043836;28;20281;-82
2023/01/31 12:15:47;;;;;;;14.40;6.65;;;;;;;;;;5040265;28;20037;-83
2023/01/31 12:18:13;;;;;;;12.90;6.47;;;;;;;;;;5030773;28;20034;-82
2023/01/31 12:20:41;;;;;;;17.85;6.78;;;;;;;;;;5046712;28;20040;-81
2023/01/31 12:23:07;;;;;;;12.55;6.13;;;;;;;;;;5044752;28;20052;-84
2023/01/31 12:25:51;;;;;;;16.23;6.70;;;;;;;;;;5039066;28;20030;-84
2023/01/31 12:28:35;;;;;;;20.08;7.80;;;;;;;;;;5034810;28;20076;-82
2023/01/31 12:31:21;;;;;;;15.57;7.10;;;;;;;;;;5039568;28;20038;-84
2023/01/31 12:33:58;;;;;;;14.10;6.30;;;;;;;;;;5042506;28;20034;-82
2023/01/31 12:36:31;;;;;;;15.15;6.70;;;;;;;;;;5042428;28;20078;-82
2023/01/31 12:39:16;;;;;;;13.43;6.25;;;;;;;;;;5040475;28;20038;-83
2023/01/31 12:41:41;;;;;;;13.63;6.70;;;;;;;;;;5041333;28;20528;-81
2023/01/31 12:44:15;;;;;;;13.55;6.43;;;;;;;;;;5038873;28;20042;-81
2023/01/31 12:46:53;;;;;;;15.75;6.70;;;;;;;;;;5033846;28;20615;-83
2023/01/31 12:49:28;;;;;;;15.23;6.60;;;;;;;;;;5045789;28;20220;-83
2023/01/31 12:51:58;;;;;;;12.27;5.70;;;;;;;;;;5041062;28;20040;-83
2023/01/31 12:54:42;;;;;;;15.82;7.05;;;;;;;;;;5048461;28;20056;-83
2023/01/31 12:57:16;;;;;;;14.13;6.63;;;;;;;;;;5042046;28;20025;-83
2023/01/31 13:00:01;;;;;;;13.15;6.10;;;;;;;22.38;100.00;120368.88;5031736;28;20033;-83
2023/01/31 13:02:29;;;;;;;11.38;5.88;;;;;;;;;;5052219;28;20119;-81
2023/01/31 13:04:58;;;;;;;13.23;6.28;;;;;;;;;;5053228;28;20444;-83
2023/01/31 13:07:32;;;;;;;12.05;6.47;;;;;;;;;;5029955;28;20029;-81
2023/01/31 13:09:59;;;;;;;12.35;6.00;;;;;;;;;;5046811;28;20659;-81
2023/01/31 13:12:26;;;;;;;13.50;6.75;;;;;;;;;;5044941;28;20040;-81
2023/01/31 13:15:03;;;;;;;12.88;6.70;;;;;;;;;;5040927;28;20038;-81
2023/01/31 13:17:29;;;;;;;16.23;6.47;;;;;;;;;;5035304;28;20038;-81
2023/01/31 13:19:56;;;;;;;13.07;6.45;;;;;;;;;;5037861;28;20528;-81
2023/01/31 13:22:26;;;;;;;16.58;6.55;;;;;;;;;;5035009;28;20032;-81
2023/01/31 13:25:14;;;;;;;11.10;5.78;;;;;;;;;;5052557;28;20121;-81
2023/01/31 13:27:44;;;;;;;13.15;6.53;;;;;;;;;;5037937;28;20026;-82
2023/01/31 13:30:15;;;;;;;12.37;6.40;;;;;;;;;;5041334;28;20089;-81
2023/01/31 13:32:42;;;;;;;13.48;6.85;;;;;;;;;;5032303;28;20121;-81
2023/01/31 13:35:19;;;;;;;15.80;6.93;;;;;;;;;;5049294;28;20083;-81
2023/01/31 13:37:46;;;;;;;12.20;6.50;;;;;;;;;;5047881;28;20064;-81
2023/01/31 13:40:19;;;;;;;17.20;6.93;;;;;;;;;;5044175;28;20510;-81
2023/01/31 13:42:44;;;;;;;11.00;6.65;;;;;;;;;;5055425;28;20171;-81
2023/01/31 13:45:18;;;;;;;13.97;7.23;;;;;;;;;;5052526;28;20034;-81
2023/01/31 13:47:45;;;;;;;13.50;6.40;;;;;;;;;;5040809;28;20364;-82
2023/01/31 13:50:34;;;;;;;13.73;6.97;;;;;;;;;;5043130;28;20045;-82
2023/01/31 13:53:00;;;;;;;14.75;6.65;;;;;;;;;;5038438;28;20556;-82
2023/01/31 13:55:35;;;;;;;13.95;6.97;;;;;;;;;;5028250;28;20045;-81
2023/01/31 13:58:05;;;;;;;12.70;6.95;;;;;;;;;;5057891;28;20037;-81
2023/01/31 14:00:30;;;;;;;14.05;7.40;;;;;;;;;;5042808;28;20100;-81
2023/01/31 14:03:04;;;;;;;11.68;6.97;;;;;;;;;;5026175;28;20065;-81
2023/01/31 14:05:41;;;;;;;11.38;7.45;;;;;;;;;;5045929;28;20041;-81
2023/01/31 14:08:26;;;;;;;17.55;8.40;;;;;;;;;;5038943;28;20033;-83
2023/01/31 14:10:51;;;;;;;14.13;7.50;;;;;;;;;;5030843;28;20050;-82
2023/01/31 14:13:32;;;;;;;16.67;7.97;;;;;;;;;;5046285;28;20083;-83
2023/01/31 14:15:57;;;;;;;13.93;7.20;;;;;;;;;;5053963;28;20033;-83
2023/01/31 14:18:49;;;;;;;13.20;7.38;;;;;;;;;;5029623;28;20034;-82
2023/01/31 14:21:14;;;;;;;;;;;;;;;;;;5043106;28;20033;-81
2023/01/31 14:23:45;;;;;;;12.38;7.18;;;;;;;;;;5036031;28;19917;-82
2023/01/31 14:26:29;;;;;;;15.77;7.57;;;;;;;;;;5028613;28;20046;-82
2023/01/31 14:28:55;;;;;;;12.82;7.70;;;;;;;;;;5029383;28;20033;-82
2023/01/31 14:31:20;;;;;;;12.40;7.38;;;;;;;;;;5039987;28;20041;-82
2023/01/31 14:33:47;;;;;;;11.13;6.90;;;;;;;;;;5054580;28;20041;-83
2023/01/31 14:36:12;;;;;;;15.75;7.75;;;;;;;;;;5038876;28;20292;-82